sensor_id;sensor_type;location;lat;lon;timestamp;temperature;humidity
10964;DHT22;5534;48.784;9.190;2024-02-26T00:00:31;10.70;99.90
10964;DHT22;5534;48.784;9.190;2024-02-26T00:02:57;10.70;99.90
10964;DHT22;5534;48.784;9.190;2024-02-26T00:05:23;10.70;99.90
10964;DHT22;5534;48.784;9.190;2024-02-26T00:07:48;10.60;99.90
10964;DHT22;5534;48.784;9.190;2024-02-26T00:10:14;10.70;99.90
10964;DHT22;5534;48.784;9.190;2024-02-26T00:12:40;10.70;99.90
10964;DHT22;5534;48.784;9.190;2024-02-26T00:15:07;10.70;99.90
10964;DHT22;5534;48.784;9.190;2024-02-26T00:17:33;10.70;99.90
10964;DHT22;5534;48.784;9.190;2024-02-26T00:19:58;10.70;99.90
10964;DHT22;5534;48.784;9.190;2024-02-26T00:22:27;10.80;99.90
10964;DHT22;5534;48.784;9.190;2024-02-26T00:24:52;10.80;99.90
10964;DHT22;5534;48.784;9.190;2024-02-26T00:27:18;10.70;99.90
10964;DHT22;5534;48.784;9.190;2024-02-26T00:29:44;10.80;99.90
10964;DHT22;5534;48.784;9.190;2024-02-26T00:32:10;10.80;99.90
10964;DHT22;5534;48.784;9.190;2024-02-26T00:34:35;10.60;99.90
10964;DHT22;5534;48.784;9.190;2024-02-26T00:37:01;10.30;99.90
10964;DHT22;5534;48.784;9.190;2024-02-26T00:39:27;10.40;99.90
10964;DHT22;5534;48.784;9.190;2024-02-26T00:41:53;10.60;99.90
10964;DHT22;5534;48.784;9.190;2024-02-26T00:44:18;10.60;99.90
10964;DHT22;5534;48.784;9.190;2024-02-26T00:46:44;10.50;99.90
10964;DHT22;5534;48.784;9.190;2024-02-26T00:49:09;10.50;99.90
10964;DHT22;5534;48.784;9.190;2024-02-26T00:51:35;10.40;99.90
10964;DHT22;5534;48.784;9.190;2024-02-26T00:54:04;10.40;99.90
10964;DHT22;5534;48.784;9.190;2024-02-26T00:56:29;10.40;99.90
10964;DHT22;5534;48.784;9.190;2024-02-26T00:58:55;10.40;99.90
10964;DHT22;5534;48.784;9.190;2024-02-26T01:01:20;10.50;99.90
10964;DHT22;5534;48.784;9.190;2024-02-26T01:03:46;10.20;99.90
10964;DHT22;5534;48.784;9.190;2024-02-26T01:06:11;10.30;99.90
10964;DHT22;5534;48.784;9.190;2024-02-26T01:08:37;10.40;99.90
10964;DHT22;5534;48.784;9.190;2024-02-26T01:11:05;10.50;99.90
10964;DHT22;5534;48.784;9.190;2024-02-26T01:13:31;10.60;99.90
10964;DHT22;5534;48.784;9.190;2024-02-26T01:15:57;10.60;99.90
10964;DHT22;5534;48.784;9.190;2024-02-26T01:18:23;10.60;99.90
10964;DHT22;5534;48.784;9.190;2024-02-26T01:20:49;10.60;99.90
10964;DHT22;5534;48.784;9.190;2024-02-26T01:23:14;10.70;99.90
10964;DHT22;5534;48.784;9.190;2024-02-26T01:25:40;10.60;99.90
10964;DHT22;5534;48.784;9.190;2024-02-26T01:28:05;10.50;99.90
10964;DHT22;5534;48.784;9.190;2024-02-26T01:30:31;10.50;99.90
10964;DHT22;5534;48.784;9.190;2024-02-26T01:32:57;10.50;99.90
10964;DHT22;5534;48.784;9.190;2024-02-26T01:35:25;10.60;99.90
10964;DHT22;5534;48.784;9.190;2024-02-26T01:37:51;10.70;99.90
10964;DHT22;5534;48.784;9.190;2024-02-26T01:40:17;10.60;99.90
10964;DHT22;5534;48.784;9.190;2024-02-26T01:42:45;10.20;99.90
10964;DHT22;5534;48.784;9.190;2024-02-26T01:45:14;10.40;99.90
10964;DHT22;5534;48.784;9.190;2024-02-26T01:47:51;10.50;99.90
10964;DHT22;5534;48.784;9.190;2024-02-26T01:50:20;10.60;99.90
10964;DHT22;5534;48.784;9.190;2024-02-26T01:52:48;10.60;99.90
10964;DHT22;5534;48.784;9.190;2024-02-26T01:55:15;10.50;99.90
10964;DHT22;5534;48.784;9.190;2024-02-26T01:57:45;10.60;99.90
10964;DHT22;5534;48.784;9.190;2024-02-26T02:00:12;10.70;99.90
10964;DHT22;5534;48.784;9.190;2024-02-26T02:02:38;10.70;99.90
10964;DHT22;5534;48.784;9.190;2024-02-26T02:05:06;10.70;99.90
10964;DHT22;5534;48.784;9.190;2024-02-26T02:07:34;10.70;99.90
10964;DHT22;5534;48.784;9.190;2024-02-26T02:10:00;10.60;99.90
10964;DHT22;5534;48.784;9.190;2024-02-26T02:12:25;10.60;99.90
10964;DHT22;5534;48.784;9.190;2024-02-26T02:14:52;10.60;99.90
10964;DHT22;5534;48.784;9.190;2024-02-26T02:17:18;10.50;99.90
10964;DHT22;5534;48.784;9.190;2024-02-26T02:19:44;10.50;99.90
10964;DHT22;5534;48.784;9.190;2024-02-26T02:22:10;10.50;99.90
10964;DHT22;5534;48.784;9.190;2024-02-26T02:24:35;10.60;99.90
10964;DHT22;5534;48.784;9.190;2024-02-26T02:27:01;10.60;99.90
10964;DHT22;5534;48.784;9.190;2024-02-26T02:29:27;10.50;99.90
10964;DHT22;5534;48.784;9.190;2024-02-26T02:31:53;10.50;99.90
10964;DHT22;5534;48.784;9.190;2024-02-26T02:34:20;10.30;99.90
10964;DHT22;5534;48.784;9.190;2024-02-26T02:36:52;10.40;99.90
10964;DHT22;5534;48.784;9.190;2024-02-26T02:39:18;10.50;99.90
10964;DHT22;5534;48.784;9.190;2024-02-26T02:41:44;10.60;99.90
10964;DHT22;5534;48.784;9.190;2024-02-26T02:44:10;10.50;99.90
10964;DHT22;5534;48.784;9.190;2024-02-26T02:46:36;10.40;99.90
10964;DHT22;5534;48.784;9.190;2024-02-26T02:49:01;10.50;99.90
10964;DHT22;5534;48.784;9.190;2024-02-26T02:51:27;10.50;99.90
10964;DHT22;5534;48.784;9.190;2024-02-26T02:53:52;10.60;99.90
10964;DHT22;5534;48.784;9.190;2024-02-26T02:56:18;10.50;99.90
10964;DHT22;5534;48.784;9.190;2024-02-26T02:58:44;10.50;99.90
10964;DHT22;5534;48.784;9.190;2024-02-26T03:01:10;10.60;99.90
10964;DHT22;5534;48.784;9.190;2024-02-26T03:03:35;10.60;99.90
10964;DHT22;5534;48.784;9.190;2024-02-26T03:06:03;10.60;99.90
10964;DHT22;5534;48.784;9.190;2024-02-26T03:08:28;10.50;99.90
10964;DHT22;5534;48.784;9.190;2024-02-26T03:10:54;10.50;99.90
10964;DHT22;5534;48.784;9.190;2024-02-26T03:13:20;10.50;99.90
10964;DHT22;5534;48.784;9.190;2024-02-26T03:15:46;10.20;99.90
10964;DHT22;5534;48.784;9.190;2024-02-26T03:18:11;10.30;99.90
10964;DHT22;5534;48.784;9.190;2024-02-26T03:20:37;10.10;99.90
10964;DHT22;5534;48.784;9.190;2024-02-26T03:23:03;10.20;99.90
10964;DHT22;5534;48.784;9.190;2024-02-26T03:25:28;10.50;99.90
10964;DHT22;5534;48.784;9.190;2024-02-26T03:27:54;10.30;99.90
10964;DHT22;5534;48.784;9.190;2024-02-26T03:30:20;10.50;99.90
10964;DHT22;5534;48.784;9.190;2024-02-26T03:32:45;10.40;99.90
10964;DHT22;5534;48.784;9.190;2024-02-26T03:35:12;10.20;99.90
10964;DHT22;5534;48.784;9.190;2024-02-26T03:37:38;10.30;99.90
10964;DHT22;5534;48.784;9.190;2024-02-26T03:40:04;10.50;99.90
10964;DHT22;5534;48.784;9.190;2024-02-26T03:42:29;10.50;99.90
10964;DHT22;5534;48.784;9.190;2024-02-26T03:44:55;10.50;99.90
10964;DHT22;5534;48.784;9.190;2024-02-26T03:47:21;10.50;99.90
10964;DHT22;5534;48.784;9.190;2024-02-26T03:49:46;10.60;99.90
10964;DHT22;5534;48.784;9.190;2024-02-26T03:52:12;10.50;99.90
10964;DHT22;5534;48.784;9.190;2024-02-26T03:54:38;10.50;99.90
10964;DHT22;5534;48.784;9.190;2024-02-26T03:57:04;10.50;99.90
10964;DHT22;5534;48.784;9.190;2024-02-26T03:59:29;10.40;99.90
10964;DHT22;5534;48.784;9.190;2024-02-26T04:01:55;10.40;99.90
10964;DHT22;5534;48.784;9.190;2024-02-26T04:04:20;10.50;99.90
10964;DHT22;5534;48.784;9.190;2024-02-26T04:06:47;10.50;99.90
10964;DHT22;5534;48.784;9.190;2024-02-26T04:09:15;10.40;99.90
10964;DHT22;5534;48.784;9.190;2024-02-26T04:11:41;10.40;99.90
10964;DHT22;5534;48.784;9.190;2024-02-26T04:14:08;10.50;99.90
10964;DHT22;5534;48.784;9.190;2024-02-26T04:16:34;10.50;99.90
10964;DHT22;5534;48.784;9.190;2024-02-26T04:19:03;10.40;99.90
10964;DHT22;5534;48.784;9.190;2024-02-26T04:21:29;10.40;99.90
10964;DHT22;5534;48.784;9.190;2024-02-26T04:23:54;10.30;99.90
10964;DHT22;5534;48.784;9.190;2024-02-26T04:26:26;10.30;99.90
10964;DHT22;5534;48.784;9.190;2024-02-26T04:28:51;10.20;99.90
10964;DHT22;5534;48.784;9.190;2024-02-26T04:31:18;10.30;99.90
10964;DHT22;5534;48.784;9.190;2024-02-26T04:33:44;10.30;99.90
10964;DHT22;5534;48.784;9.190;2024-02-26T04:36:15;10.30;99.90
10964;DHT22;5534;48.784;9.190;2024-02-26T04:38:43;10.40;99.90
10964;DHT22;5534;48.784;9.190;2024-02-26T04:41:08;10.40;99.90
10964;DHT22;5534;48.784;9.190;2024-02-26T04:43:34;10.30;99.90
10964;DHT22;5534;48.784;9.190;2024-02-26T04:45:59;10.40;99.90
10964;DHT22;5534;48.784;9.190;2024-02-26T04:48:27;10.50;99.90
10964;DHT22;5534;48.784;9.190;2024-02-26T04:50:53;10.40;99.90
10964;DHT22;5534;48.784;9.190;2024-02-26T04:53:18;10.40;99.90
10964;DHT22;5534;48.784;9.190;2024-02-26T04:55:44;10.40;99.90
10964;DHT22;5534;48.784;9.190;2024-02-26T04:58:09;10.50;99.90
10964;DHT22;5534;48.784;9.190;2024-02-26T05:00:35;10.40;99.90
10964;DHT22;5534;48.784;9.190;2024-02-26T05:03:01;10.30;99.90
10964;DHT22;5534;48.784;9.190;2024-02-26T05:05:27;10.40;99.90
10964;DHT22;5534;48.784;9.190;2024-02-26T05:07:52;10.20;99.90
10964;DHT22;5534;48.784;9.190;2024-02-26T05:10:18;10.30;99.90
10964;DHT22;5534;48.784;9.190;2024-02-26T05:12:43;10.30;99.90
10964;DHT22;5534;48.784;9.190;2024-02-26T05:15:10;10.30;99.90
10964;DHT22;5534;48.784;9.190;2024-02-26T05:17:35;10.20;99.90
10964;DHT22;5534;48.784;9.190;2024-02-26T05:20:01;10.30;99.90
10964;DHT22;5534;48.784;9.190;2024-02-26T05:22:27;10.20;99.90
10964;DHT22;5534;48.784;9.190;2024-02-26T05:24:53;10.30;99.90
10964;DHT22;5534;48.784;9.190;2024-02-26T05:27:19;10.30;99.90
10964;DHT22;5534;48.784;9.190;2024-02-26T05:29:44;10.00;99.90
10964;DHT22;5534;48.784;9.190;2024-02-26T05:32:10;10.10;99.90
10964;DHT22;5534;48.784;9.190;2024-02-26T05:34:36;10.20;99.90
10964;DHT22;5534;48.784;9.190;2024-02-26T05:37:02;10.30;99.90
10964;DHT22;5534;48.784;9.190;2024-02-26T05:39:27;10.30;99.90
10964;DHT22;5534;48.784;9.190;2024-02-26T05:41:53;10.30;99.90
10964;DHT22;5534;48.784;9.190;2024-02-26T05:44:18;10.40;99.90
10964;DHT22;5534;48.784;9.190;2024-02-26T05:46:44;10.40;99.90
10964;DHT22;5534;48.784;9.190;2024-02-26T05:49:10;10.40;99.90
10964;DHT22;5534;48.784;9.190;2024-02-26T05:51:35;10.50;99.90
10964;DHT22;5534;48.784;9.190;2024-02-26T05:54:01;10.40;99.90
10964;DHT22;5534;48.784;9.190;2024-02-26T05:56:26;10.60;99.90
10964;DHT22;5534;48.784;9.190;2024-02-26T05:58:52;10.30;99.90
10964;DHT22;5534;48.784;9.190;2024-02-26T06:01:19;10.30;99.90
10964;DHT22;5534;48.784;9.190;2024-02-26T06:03:44;10.40;99.90
10964;DHT22;5534;48.784;9.190;2024-02-26T06:06:13;10.30;99.90
10964;DHT22;5534;48.784;9.190;2024-02-26T06:08:40;10.40;99.90
10964;DHT22;5534;48.784;9.190;2024-02-26T06:11:06;10.30;99.90
10964;DHT22;5534;48.784;9.190;2024-02-26T06:13:33;10.30;99.90
10964;DHT22;5534;48.784;9.190;2024-02-26T06:15:58;10.00;99.90
10964;DHT22;5534;48.784;9.190;2024-02-26T06:18:24;10.10;99.90
10964;DHT22;5534;48.784;9.190;2024-02-26T06:20:49;10.30;99.90
10964;DHT22;5534;48.784;9.190;2024-02-26T06:23:15;10.00;99.90
10964;DHT22;5534;48.784;9.190;2024-02-26T06:25:41;9.60;99.90
10964;DHT22;5534;48.784;9.190;2024-02-26T06:28:08;9.50;99.90
10964;DHT22;5534;48.784;9.190;2024-02-26T06:30:34;9.70;99.90
10964;DHT22;5534;48.784;9.190;2024-02-26T06:32:59;9.90;99.90
10964;DHT22;5534;48.784;9.190;2024-02-26T06:35:25;10.10;99.90
10964;DHT22;5534;48.784;9.190;2024-02-26T06:37:51;10.20;99.90
10964;DHT22;5534;48.784;9.190;2024-02-26T06:40:21;10.20;99.90
10964;DHT22;5534;48.784;9.190;2024-02-26T06:42:46;10.30;99.90
10964;DHT22;5534;48.784;9.190;2024-02-26T06:45:12;10.20;99.90
10964;DHT22;5534;48.784;9.190;2024-02-26T06:47:38;10.20;99.90
10964;DHT22;5534;48.784;9.190;2024-02-26T06:50:03;10.30;99.90
10964;DHT22;5534;48.784;9.190;2024-02-26T06:52:29;10.30;99.90
10964;DHT22;5534;48.784;9.190;2024-02-26T06:54:55;10.20;99.90
10964;DHT22;5534;48.784;9.190;2024-02-26T06:57:20;10.30;99.90
10964;DHT22;5534;48.784;9.190;2024-02-26T06:59:46;10.30;99.90
10964;DHT22;5534;48.784;9.190;2024-02-26T07:02:15;10.20;99.90
10964;DHT22;5534;48.784;9.190;2024-02-26T07:04:42;10.30;99.90
10964;DHT22;5534;48.784;9.190;2024-02-26T07:07:08;10.10;99.90
10964;DHT22;5534;48.784;9.190;2024-02-26T07:09:33;10.30;99.90
10964;DHT22;5534;48.784;9.190;2024-02-26T07:11:59;10.40;99.90
10964;DHT22;5534;48.784;9.190;2024-02-26T07:14:28;10.50;99.90
10964;DHT22;5534;48.784;9.190;2024-02-26T07:16:53;10.50;99.90
10964;DHT22;5534;48.784;9.190;2024-02-26T07:19:19;10.50;99.90
10964;DHT22;5534;48.784;9.190;2024-02-26T07:21:44;10.50;99.90
10964;DHT22;5534;48.784;9.190;2024-02-26T07:24:10;10.40;99.90
10964;DHT22;5534;48.784;9.190;2024-02-26T07:26:36;10.40;99.90
10964;DHT22;5534;48.784;9.190;2024-02-26T07:29:02;10.30;99.90
10964;DHT22;5534;48.784;9.190;2024-02-26T07:31:29;10.20;99.90
10964;DHT22;5534;48.784;9.190;2024-02-26T07:33:55;10.30;99.90
10964;DHT22;5534;48.784;9.190;2024-02-26T07:36:20;10.40;99.90
10964;DHT22;5534;48.784;9.190;2024-02-26T07:38:46;10.30;99.90
10964;DHT22;5534;48.784;9.190;2024-02-26T07:41:11;10.40;99.90
10964;DHT22;5534;48.784;9.190;2024-02-26T07:43:37;10.40;99.90
10964;DHT22;5534;48.784;9.190;2024-02-26T07:46:03;10.50;99.90
10964;DHT22;5534;48.784;9.190;2024-02-26T07:48:28;10.50;99.90
10964;DHT22;5534;48.784;9.190;2024-02-26T07:50:54;10.60;99.90
10964;DHT22;5534;48.784;9.190;2024-02-26T07:53:20;10.70;99.90
10964;DHT22;5534;48.784;9.190;2024-02-26T07:55:45;10.70;99.90
10964;DHT22;5534;48.784;9.190;2024-02-26T07:58:11;10.70;99.90
10964;DHT22;5534;48.784;9.190;2024-02-26T08:00:37;10.70;99.90
10964;DHT22;5534;48.784;9.190;2024-02-26T08:03:02;10.70;99.90
10964;DHT22;5534;48.784;9.190;2024-02-26T08:05:28;10.70;99.90
10964;DHT22;5534;48.784;9.190;2024-02-26T08:07:54;10.80;99.90
10964;DHT22;5534;48.784;9.190;2024-02-26T08:10:20;10.80;99.90
10964;DHT22;5534;48.784;9.190;2024-02-26T08:12:46;10.80;99.90
10964;DHT22;5534;48.784;9.190;2024-02-26T08:15:12;10.90;99.90
10964;DHT22;5534;48.784;9.190;2024-02-26T08:17:37;11.00;99.90
10964;DHT22;5534;48.784;9.190;2024-02-26T08:20:04;10.90;99.90
10964;DHT22;5534;48.784;9.190;2024-02-26T08:22:30;11.00;99.90
10964;DHT22;5534;48.784;9.190;2024-02-26T08:24:57;10.90;99.90
10964;DHT22;5534;48.784;9.190;2024-02-26T08:27:23;10.90;99.90
10964;DHT22;5534;48.784;9.190;2024-02-26T08:29:49;10.90;99.90
10964;DHT22;5534;48.784;9.190;2024-02-26T08:32:14;10.90;99.90
10964;DHT22;5534;48.784;9.190;2024-02-26T08:34:40;10.90;99.90
10964;DHT22;5534;48.784;9.190;2024-02-26T08:37:06;10.90;99.90
10964;DHT22;5534;48.784;9.190;2024-02-26T08:39:31;10.80;99.90
10964;DHT22;5534;48.784;9.190;2024-02-26T08:41:57;11.00;99.90
10964;DHT22;5534;48.784;9.190;2024-02-26T08:44:23;11.10;99.90
10964;DHT22;5534;48.784;9.190;2024-02-26T08:46:48;11.00;99.90
10964;DHT22;5534;48.784;9.190;2024-02-26T08:49:14;11.10;99.90
10964;DHT22;5534;48.784;9.190;2024-02-26T08:51:42;11.20;99.90
10964;DHT22;5534;48.784;9.190;2024-02-26T08:54:09;11.20;99.90
10964;DHT22;5534;48.784;9.190;2024-02-26T08:56:34;11.20;99.90
10964;DHT22;5534;48.784;9.190;2024-02-26T08:59:00;11.30;99.90
10964;DHT22;5534;48.784;9.190;2024-02-26T09:01:30;11.30;99.90
10964;DHT22;5534;48.784;9.190;2024-02-26T09:03:56;11.30;99.90
10964;DHT22;5534;48.784;9.190;2024-02-26T09:06:22;11.00;99.90
10964;DHT22;5534;48.784;9.190;2024-02-26T09:08:47;11.10;99.90
10964;DHT22;5534;48.784;9.190;2024-02-26T09:11:13;11.20;99.90
10964;DHT22;5534;48.784;9.190;2024-02-26T09:13:38;11.30;99.90
10964;DHT22;5534;48.784;9.190;2024-02-26T09:16:06;11.20;99.90
10964;DHT22;5534;48.784;9.190;2024-02-26T09:18:31;11.40;99.90
10964;DHT22;5534;48.784;9.190;2024-02-26T09:20:57;11.50;99.90
10964;DHT22;5534;48.784;9.190;2024-02-26T09:23:23;11.50;99.90
10964;DHT22;5534;48.784;9.190;2024-02-26T09:25:48;11.50;99.90
10964;DHT22;5534;48.784;9.190;2024-02-26T09:28:14;11.40;99.90
10964;DHT22;5534;48.784;9.190;2024-02-26T09:30:43;11.40;99.90
10964;DHT22;5534;48.784;9.190;2024-02-26T09:33:09;11.40;99.90
10964;DHT22;5534;48.784;9.190;2024-02-26T09:35:34;11.50;99.90
10964;DHT22;5534;48.784;9.190;2024-02-26T09:38:00;11.50;99.90
10964;DHT22;5534;48.784;9.190;2024-02-26T09:40:25;11.40;99.90
10964;DHT22;5534;48.784;9.190;2024-02-26T09:42:59;10.90;99.90
10964;DHT22;5534;48.784;9.190;2024-02-26T09:45:26;10.70;99.90
10964;DHT22;5534;48.784;9.190;2024-02-26T09:47:55;10.80;99.90
10964;DHT22;5534;48.784;9.190;2024-02-26T09:50:21;11.10;99.90
10964;DHT22;5534;48.784;9.190;2024-02-26T09:52:49;11.40;99.90
10964;DHT22;5534;48.784;9.190;2024-02-26T09:55:15;11.40;99.90
10964;DHT22;5534;48.784;9.190;2024-02-26T09:57:45;11.50;99.90
10964;DHT22;5534;48.784;9.190;2024-02-26T10:00:17;11.60;99.90
10964;DHT22;5534;48.784;9.190;2024-02-26T10:02:45;11.70;99.90
10964;DHT22;5534;48.784;9.190;2024-02-26T10:05:14;11.70;99.90
10964;DHT22;5534;48.784;9.190;2024-02-26T10:07:42;11.90;99.90
10964;DHT22;5534;48.784;9.190;2024-02-26T10:10:09;12.00;99.90
10964;DHT22;5534;48.784;9.190;2024-02-26T10:12:35;12.10;99.90
10964;DHT22;5534;48.784;9.190;2024-02-26T10:15:00;12.10;99.90
10964;DHT22;5534;48.784;9.190;2024-02-26T10:17:26;12.20;99.90
10964;DHT22;5534;48.784;9.190;2024-02-26T10:19:53;12.20;99.90
10964;DHT22;5534;48.784;9.190;2024-02-26T10:22:22;12.30;99.90
10964;DHT22;5534;48.784;9.190;2024-02-26T10:24:48;12.50;99.90
10964;DHT22;5534;48.784;9.190;2024-02-26T10:27:15;12.50;99.90
10964;DHT22;5534;48.784;9.190;2024-02-26T10:29:40;12.40;99.90
10964;DHT22;5534;48.784;9.190;2024-02-26T10:32:09;12.40;99.90
10964;DHT22;5534;48.784;9.190;2024-02-26T10:34:35;12.50;99.90
10964;DHT22;5534;48.784;9.190;2024-02-26T10:37:04;12.50;99.90
10964;DHT22;5534;48.784;9.190;2024-02-26T10:39:30;12.50;99.90
10964;DHT22;5534;48.784;9.190;2024-02-26T10:41:55;12.70;99.90
10964;DHT22;5534;48.784;9.190;2024-02-26T10:44:21;12.60;99.90
10964;DHT22;5534;48.784;9.190;2024-02-26T10:46:47;12.70;99.90
10964;DHT22;5534;48.784;9.190;2024-02-26T10:49:25;12.60;99.90
10964;DHT22;5534;48.784;9.190;2024-02-26T10:52:04;12.70;99.90
10964;DHT22;5534;48.784;9.190;2024-02-26T10:55:23;12.70;99.90
10964;DHT22;5534;48.784;9.190;2024-02-26T10:58:31;12.70;99.90
10964;DHT22;5534;48.784;9.190;2024-02-26T11:01:39;12.80;99.90
10964;DHT22;5534;48.784;9.190;2024-02-26T11:07:53;12.90;99.90
10964;DHT22;5534;48.784;9.190;2024-02-26T11:13:23;13.00;99.90
10964;DHT22;5534;48.784;9.190;2024-02-26T11:16:18;13.10;99.90
10964;DHT22;5534;48.784;9.190;2024-02-26T11:26:07;12.90;99.90
10964;DHT22;5534;48.784;9.190;2024-02-26T11:35:08;12.80;99.90
10964;DHT22;5534;48.784;9.190;2024-02-26T11:37:41;13.10;99.90
10964;DHT22;5534;48.784;9.190;2024-02-26T11:40:11;13.10;99.90
10964;DHT22;5534;48.784;9.190;2024-02-26T11:42:56;13.10;99.90
10964;DHT22;5534;48.784;9.190;2024-02-26T11:46:25;13.30;99.90
10964;DHT22;5534;48.784;9.190;2024-02-26T11:59:44;13.70;99.90
10964;DHT22;5534;48.784;9.190;2024-02-26T12:08:51;14.00;99.90
10964;DHT22;5534;48.784;9.190;2024-02-26T12:11:32;14.00;99.90
10964;DHT22;5534;48.784;9.190;2024-02-26T12:14:18;14.10;99.90
10964;DHT22;5534;48.784;9.190;2024-02-26T12:16:44;14.10;99.90
10964;DHT22;5534;48.784;9.190;2024-02-26T12:19:14;14.10;99.90
10964;DHT22;5534;48.784;9.190;2024-02-26T12:21:54;14.20;99.90
10964;DHT22;5534;48.784;9.190;2024-02-26T12:24:23;14.10;99.90
10964;DHT22;5534;48.784;9.190;2024-02-26T12:27:10;14.00;99.90
10964;DHT22;5534;48.784;9.190;2024-02-26T12:33:07;14.20;99.90
10964;DHT22;5534;48.784;9.190;2024-02-26T12:35:34;14.10;99.90
10964;DHT22;5534;48.784;9.190;2024-02-26T12:38:00;14.00;99.90
10964;DHT22;5534;48.784;9.190;2024-02-26T12:40:26;13.80;99.90
10964;DHT22;5534;48.784;9.190;2024-02-26T12:42:54;13.90;99.90
10964;DHT22;5534;48.784;9.190;2024-02-26T12:45:21;13.80;99.90
10964;DHT22;5534;48.784;9.190;2024-02-26T12:47:46;13.80;99.90
10964;DHT22;5534;48.784;9.190;2024-02-26T12:50:13;13.90;99.90
10964;DHT22;5534;48.784;9.190;2024-02-26T12:52:44;14.00;99.90
10964;DHT22;5534;48.784;9.190;2024-02-26T12:55:16;14.10;99.90
10964;DHT22;5534;48.784;9.190;2024-02-26T12:57:44;14.10;99.90
10964;DHT22;5534;48.784;9.190;2024-02-26T13:00:16;14.00;99.90
10964;DHT22;5534;48.784;9.190;2024-02-26T13:02:44;14.10;99.90
10964;DHT22;5534;48.784;9.190;2024-02-26T13:05:12;14.00;99.90
10964;DHT22;5534;48.784;9.190;2024-02-26T13:07:44;13.90;99.90
10964;DHT22;5534;48.784;9.190;2024-02-26T13:10:11;13.80;99.90
10964;DHT22;5534;48.784;9.190;2024-02-26T13:12:48;13.90;99.90
10964;DHT22;5534;48.784;9.190;2024-02-26T13:15:22;14.00;99.90
10964;DHT22;5534;48.784;9.190;2024-02-26T13:17:49;14.30;99.90
10964;DHT22;5534;48.784;9.190;2024-02-26T13:20:30;14.30;99.90
10964;DHT22;5534;48.784;9.190;2024-02-26T13:23:10;14.40;99.90
10964;DHT22;5534;48.784;9.190;2024-02-26T13:25:36;14.30;99.90
10964;DHT22;5534;48.784;9.190;2024-02-26T13:28:16;14.40;99.90
10964;DHT22;5534;48.784;9.190;2024-02-26T13:30:53;14.40;99.90
10964;DHT22;5534;48.784;9.190;2024-02-26T13:33:22;14.40;99.90
10964;DHT22;5534;48.784;9.190;2024-02-26T13:35:51;14.50;99.90
10964;DHT22;5534;48.784;9.190;2024-02-26T13:38:17;14.30;99.90
10964;DHT22;5534;48.784;9.190;2024-02-26T13:40:43;14.40;99.90
10964;DHT22;5534;48.784;9.190;2024-02-26T13:43:08;14.50;99.90
10964;DHT22;5534;48.784;9.190;2024-02-26T13:45:38;14.60;99.90
10964;DHT22;5534;48.784;9.190;2024-02-26T13:48:44;14.70;99.90
10964;DHT22;5534;48.784;9.190;2024-02-26T13:51:30;14.70;99.90
10964;DHT22;5534;48.784;9.190;2024-02-26T13:54:29;14.80;99.90
10964;DHT22;5534;48.784;9.190;2024-02-26T13:57:20;14.80;99.90
10964;DHT22;5534;48.784;9.190;2024-02-26T14:03:50;14.80;99.90
10964;DHT22;5534;48.784;9.190;2024-02-26T14:06:45;14.70;99.90
10964;DHT22;5534;48.784;9.190;2024-02-26T14:09:26;14.80;99.90
10964;DHT22;5534;48.784;9.190;2024-02-26T14:18:55;14.80;99.90
10964;DHT22;5534;48.784;9.190;2024-02-26T14:22:00;14.60;99.90
10964;DHT22;5534;48.784;9.190;2024-02-26T14:24:35;14.80;99.90
10964;DHT22;5534;48.784;9.190;2024-02-26T14:27:39;14.80;99.90
10964;DHT22;5534;48.784;9.190;2024-02-26T14:30:27;14.70;99.90
10964;DHT22;5534;48.784;9.190;2024-02-26T14:33:14;14.60;99.90
10964;DHT22;5534;48.784;9.190;2024-02-26T14:36:02;14.60;99.90
10964;DHT22;5534;48.784;9.190;2024-02-26T14:42:26;14.60;99.90
10964;DHT22;5534;48.784;9.190;2024-02-26T14:45:36;14.80;99.90
10964;DHT22;5534;48.784;9.190;2024-02-26T14:48:24;14.80;99.90
10964;DHT22;5534;48.784;9.190;2024-02-26T14:50:50;14.80;99.90
10964;DHT22;5534;48.784;9.190;2024-02-26T14:53:17;14.80;99.90
10964;DHT22;5534;48.784;9.190;2024-02-26T14:55:42;14.70;99.90
10964;DHT22;5534;48.784;9.190;2024-02-26T14:58:08;14.70;99.90
10964;DHT22;5534;48.784;9.190;2024-02-26T15:00:36;14.60;99.90
10964;DHT22;5534;48.784;9.190;2024-02-26T15:03:02;14.70;99.90
10964;DHT22;5534;48.784;9.190;2024-02-26T15:05:28;14.60;99.90
10964;DHT22;5534;48.784;9.190;2024-02-26T15:07:54;14.60;99.90
10964;DHT22;5534;48.784;9.190;2024-02-26T15:10:19;14.60;99.90
10964;DHT22;5534;48.784;9.190;2024-02-26T15:12:45;14.50;99.90
10964;DHT22;5534;48.784;9.190;2024-02-26T15:15:10;14.40;99.90
10964;DHT22;5534;48.784;9.190;2024-02-26T15:17:38;14.40;99.90
10964;DHT22;5534;48.784;9.190;2024-02-26T15:20:05;14.40;99.90
10964;DHT22;5534;48.784;9.190;2024-02-26T15:22:33;14.40;99.90
10964;DHT22;5534;48.784;9.190;2024-02-26T15:24:59;14.30;99.90
10964;DHT22;5534;48.784;9.190;2024-02-26T15:27:24;14.30;99.90
10964;DHT22;5534;48.784;9.190;2024-02-26T15:29:50;14.40;99.90
10964;DHT22;5534;48.784;9.190;2024-02-26T15:32:23;14.30;99.90
10964;DHT22;5534;48.784;9.190;2024-02-26T15:34:54;14.30;99.90
10964;DHT22;5534;48.784;9.190;2024-02-26T15:37:19;14.20;99.90
10964;DHT22;5534;48.784;9.190;2024-02-26T15:39:59;14.10;99.90
10964;DHT22;5534;48.784;9.190;2024-02-26T15:42:25;14.20;99.90
10964;DHT22;5534;48.784;9.190;2024-02-26T15:44:51;14.20;99.90
10964;DHT22;5534;48.784;9.190;2024-02-26T15:47:16;14.20;99.90
10964;DHT22;5534;48.784;9.190;2024-02-26T15:49:43;14.10;99.90
10964;DHT22;5534;48.784;9.190;2024-02-26T15:52:09;14.10;99.90
10964;DHT22;5534;48.784;9.190;2024-02-26T15:54:41;14.10;99.90
10964;DHT22;5534;48.784;9.190;2024-02-26T15:57:07;14.00;99.90
10964;DHT22;5534;48.784;9.190;2024-02-26T15:59:35;14.10;99.90
10964;DHT22;5534;48.784;9.190;2024-02-26T16:02:00;14.10;99.90
10964;DHT22;5534;48.784;9.190;2024-02-26T16:04:26;14.10;99.90
10964;DHT22;5534;48.784;9.190;2024-02-26T16:06:55;14.00;99.90
10964;DHT22;5534;48.784;9.190;2024-02-26T16:09:22;14.00;99.90
10964;DHT22;5534;48.784;9.190;2024-02-26T16:11:48;13.90;99.90
10964;DHT22;5534;48.784;9.190;2024-02-26T16:17:12;14.00;99.90
10964;DHT22;5534;48.784;9.190;2024-02-26T16:19:40;13.90;99.90
10964;DHT22;5534;48.784;9.190;2024-02-26T16:22:05;13.90;99.90
10964;DHT22;5534;48.784;9.190;2024-02-26T16:24:31;13.80;99.90
10964;DHT22;5534;48.784;9.190;2024-02-26T16:26:58;13.80;99.90
10964;DHT22;5534;48.784;9.190;2024-02-26T16:29:23;13.80;99.90
10964;DHT22;5534;48.784;9.190;2024-02-26T16:31:49;13.90;99.90
10964;DHT22;5534;48.784;9.190;2024-02-26T16:34:16;13.90;99.90
10964;DHT22;5534;48.784;9.190;2024-02-26T16:36:41;13.90;99.90
10964;DHT22;5534;48.784;9.190;2024-02-26T16:39:07;13.80;99.90
10964;DHT22;5534;48.784;9.190;2024-02-26T16:41:33;13.70;99.90
10964;DHT22;5534;48.784;9.190;2024-02-26T16:43:59;13.60;99.90
10964;DHT22;5534;48.784;9.190;2024-02-26T16:46:25;13.60;99.90
10964;DHT22;5534;48.784;9.190;2024-02-26T16:48:51;13.80;99.90
10964;DHT22;5534;48.784;9.190;2024-02-26T16:51:20;13.70;99.90
10964;DHT22;5534;48.784;9.190;2024-02-26T16:53:46;13.60;99.90